Rush River, Wisconsin
Current Conditions -  °F | °C
As of 4:15 AM on Saturday 22 Nov 2014 (Local Time) from KRNH Reporting Station
Haze Haze  
Wind Chill: 26°   Ceiling: 600
Heat Index: 35°   Visibility: 4mi
Dew Point: 34°   Wind: 12mph
Humidity: 97%   Direction: 210°SSW
Pressure: 29.8"   Gusts: NA
Location:  44.9659°N, 92.3734°W
Report Text: KRNH 221015Z AUTO 21010KT 4SM BR OVC006 02/01 A2980 RMK AO2 T00150010
Loading
Personal Weather Stations






























Interactive Weather Map New forecast layout! Learn more

10-Day Weather Forecast

Advertisements
Track Severe Weather on mobile